Stockdale, Texas
Current Conditions -  °F | °C
As of 3:58 PM on Saturday 25 Oct 2014 (Local Time) from KRND Reporting Station
Clear Clear  
Wind Chill: 87°   Ceiling: Unl
Heat Index: 87°   Visibility: 10mi
Dew Point: 55°   Wind: 3mph
Humidity: 34%   Direction: 30°NNE
Pressure: 30.1"   Gusts: NA
Location:  29.24°N, 97.96°W
Report Text: KRND 252058Z AUTO 03003KT 10SM CLR 30/13 A3010 RMK AO2 SLP186 T03030128 57022
Loading
Personal Weather Stations






























Interactive Weather Map
Tropical Storm Tracking
New forecast layout! Learn more

10-Day Weather Forecast

Advertisements
Track Severe Weather on mobile